Time;durP1;ratioP1;P1;durP2;ratioP2;P2;SDS_P1;SDS_P2;PMS_P1;PMS_P2;Temp;Humidity;BMP_temperature;BMP_pressure;BME280_temperature;BME280_humidity;BME280_pressure;Samples;Min_cycle;Max_cycle;Signal;HPM_P1;HPM_P2
2024/02/13 05:43:33;;;;;;;;;;;;;;;8.44;100.00;99314.39;107838;1278;22511;-62
2024/02/13 05:46:02;;;;;;;;;;;;;;;8.49;100.00;99325.30;109082;1278;23461;-49
2024/02/13 05:48:29;;;;;;;;;;;;;;;8.53;100.00;99328.41;110176;1263;22437;-49
2024/02/13 05:50:57;;;;;;;;;;;;;;;8.60;100.00;99340.88;110177;1260;22464;-61
2024/02/13 05:53:28;;;;;;;;;;;;;;;8.66;100.00;99339.09;110103;1262;22420;-62
2024/02/13 05:55:56;;;;;;;;;;;;;;;8.71;100.00;99344.97;110149;1266;22574;-49
2024/02/13 05:58:27;;;;;;;;;;;;;;;8.74;100.00;99351.89;109999;1258;22496;-61
2024/02/13 06:00:57;;;;;;;;;;;;;;;8.78;100.00;99357.27;110202;1270;22428;-49
2024/02/13 06:03:27;;;;;;;;;;;;;;;8.80;100.00;99352.71;109615;1278;22550;-50
2024/02/13 06:05:56;;;;;;;;;;;;;;;8.82;100.00;99352.54;109621;1274;22524;-50
2024/02/13 06:08:23;;;;;;;;;;;;;;;8.81;100.00;99353.92;109869;1276;22425;-62
2024/02/13 06:10:51;;;;;;;;;;;;;;;8.83;100.00;99356.36;110062;1276;23194;-51
2024/02/13 06:13:20;;;;;;;;;;;;;;;8.84;100.00;99350.61;110102;1271;23185;-64
2024/02/13 06:15:47;;;;;;;;;;;;;;;8.85;100.00;99347.29;109982;1276;22507;-61
2024/02/13 06:18:14;;;;;;;;;;;;;;;8.86;100.00;99346.41;110090;1271;22757;-61
2024/02/13 06:20:43;;;;;;;;;;;;;;;8.87;100.00;99342.23;109776;1274;22447;-50
2024/02/13 06:23:12;;;;;;;;;;;;;;;8.87;100.00;99344.67;109582;1272;22607;-62
2024/02/13 06:25:40;;;;;;;;;;;;;;;8.88;100.00;99343.80;109589;1276;22491;-49
2024/02/13 06:28:35;;;;;;;;;;;;;;;8.92;100.00;99343.58;109468;1270;22510;-63
2024/02/13 06:36:15;;;;;;;;;;;;;;;9.03;100.00;99351.48;109646;1270;22532;-50
2024/02/13 06:39:58;;;;;;;;;;;;;;;9.08;100.00;99361.88;108749;1270;22502;-57
2024/02/13 06:46:44;;;;;;;;;;;;;;;9.15;100.00;99369.81;105239;1276;22521;-58
2024/02/13 06:49:36;;;;;;;;;;;;;;;9.15;100.00;99369.99;108576;1276;22511;-53
2024/02/13 06:52:04;;;;;;;;;;;;;;;9.13;100.00;99375.58;108754;1270;22507;-49
2024/02/13 06:54:32;;;;;;;;;;;;;;;9.15;100.00;99374.68;108763;1271;22637;-54
2024/02/13 06:57:01;;;;;;;;;;;;;;;9.18;100.00;99376.06;109161;1273;22538;-58
2024/02/13 06:59:30;;;;;;;;;;;;;;;9.24;100.00;99378.09;108366;1272;22724;-62
2024/02/13 07:01:59;;;;;;;;;;;;;;;9.29;100.00;99379.45;109043;1263;22465;-61
2024/02/13 07:04:27;;;;;;;;;;;;;;;9.33;100.00;99377.14;109093;1256;22524;-56
2024/02/13 07:06:57;;;;;;;;;;;;;;;9.38;100.00;99379.70;109119;1277;23043;-48
2024/02/13 07:09:49;;;;;;;;;;;;;;;9.44;100.00;99378.77;108518;1278;25431;-59
2024/02/13 07:12:20;;;;;;;;;;;;;;;9.51;100.00;99380.80;108673;1272;22510;-46
2024/02/13 07:14:51;;;;;;;;;;;;;;;9.55;100.00;99377.42;109570;1270;23479;-56
2024/02/13 07:21:24;;;;;;;;;;;;;;;9.70;100.00;99378.84;109389;1275;23682;-57
2024/02/13 07:23:55;;;;;;;;;;;;;;;9.74;100.00;99378.98;109516;1271;22608;-55
2024/02/13 07:26:24;;;;;;;;;;;;;;;9.77;100.00;99381.03;109489;1262;22536;-54
2024/02/13 07:28:53;;;;;;;;;;;;;;;9.80;100.00;99381.18;108552;1278;24206;-56
2024/02/13 07:31:21;;;;;;;;;;;;;;;9.82;100.00;99381.48;109808;1278;22461;-54
2024/02/13 07:33:49;;;;;;;;;;;;;;;9.86;100.00;99387.73;109790;1273;23283;-56
2024/02/13 07:36:24;;;;;;;;;;;;;;;9.92;100.00;99390.45;108852;1276;23430;-53
2024/02/13 07:39:05;;;;;;;;;;;;;;;10.00;100.00;99388.26;109752;1269;22563;-57
2024/02/13 07:42:10;;;;;;;;;;;;;;;10.08;100.00;99397.55;109474;1263;22486;-57
2024/02/13 07:45:14;;;;;;;;;;;;;;;10.16;100.00;99403.58;109693;1276;22589;-53
2024/02/13 07:47:54;;;;;;;;;;;;;;;10.23;100.00;99403.15;109839;1277;23078;-57
2024/02/13 07:50:22;;;;;;;;;;;;;;;10.25;100.00;99408.71;108953;1276;23254;-56
2024/02/13 07:53:40;;;;;;;;;;;;;;;10.27;100.00;99410.43;108735;1270;22575;-57
2024/02/13 07:56:10;;;;;;;;;;;;;;;10.28;100.00;99406.77;109668;1263;24641;-57
2024/02/13 07:58:39;;;;;;;;;;;;;;;10.31;100.00;99414.20;110035;1276;22424;-57
2024/02/13 08:01:09;;;;;;;;;;;;;;;10.32;100.00;99415.60;110019;1278;22514;-55
2024/02/13 08:03:38;;;;;;;;;;;;;;;10.31;100.00;99414.55;108611;1275;22525;-55
2024/02/13 08:06:08;;;;;;;;;;;;;;;10.32;100.00;99414.20;109758;1276;22515;-52
2024/02/13 08:08:36;;;;;;;;;;;;;;;10.30;100.00;99410.73;108857;1270;22513;-55
2024/02/13 08:11:04;;;;;;;;;;;;;;;10.28;100.00;99408.68;109616;1273;22501;-55
2024/02/13 08:13:32;;;;;;;;;;;;;;;10.27;100.00;99408.88;109609;1260;22489;-57
2024/02/13 08:15:59;;;;;;;;;;;;;;;10.28;100.00;99409.04;109516;1276;22531;-53
2024/02/13 08:18:29;;;;;;;;;;;;;;;10.30;100.00;99414.40;109710;1273;22607;-57
2024/02/13 08:21:09;;;;;;;;;;;;;;;10.32;100.00;99404.42;109487;1270;23543;-53
2024/02/13 08:23:47;;;;;;;;;;;;;;;10.36;100.00;99408.73;109404;1272;23309;-57
2024/02/13 08:26:17;;;;;;;;;;;;;;;10.41;100.00;99411.65;109506;1275;22997;-53
2024/02/13 08:28:47;;;;;;;;;;;;;;;10.47;100.00;99417.31;109498;1262;22500;-57
2024/02/13 08:31:16;;;;;;;;;;;;;;;10.54;100.00;99418.09;109744;1276;22525;-54
2024/02/13 08:33:49;;;;;;;;;;;;;;;10.57;100.00;99414.57;108783;1276;22550;-54
2024/02/13 08:36:19;;;;;;;;;;;;;;;10.60;100.00;99415.39;109480;1272;22522;-54
2024/02/13 08:38:46;;;;;;;;;;;;;;;10.62;100.00;99412.24;109458;1276;23616;-57
2024/02/13 08:41:14;;;;;;;;;;;;;;;10.63;100.00;99413.09;109305;1272;23314;-53
2024/02/13 08:43:43;;;;;;;;;;;;;;;10.63;100.00;99417.61;109308;1269;22500;-55
2024/02/13 08:46:19;;;;;;;;;;;;;;;10.62;100.00;99415.89;108782;1267;22623;-54
2024/02/13 08:49:00;;;;;;;;;;;;;;;10.61;100.00;99419.05;108990;1272;22516;-58
2024/02/13 08:51:53;;;;;;;;;;;;;;;10.63;100.00;99421.10;108658;1278;24386;-53
2024/02/13 08:54:31;;;;;;;;;;;;;;;10.62;100.00;99419.20;108926;1273;23717;-55
2024/02/13 08:57:06;;;;;;;;;;;;;;;10.59;100.00;99419.92;109095;1274;22537;-54
2024/02/13 09:00:28;;;;;;;;;;;;;;;10.58;100.00;99419.94;109297;1269;22531;-54
2024/02/13 09:03:14;;;;;;;;;;;;;;;10.59;100.00;99418.20;109251;1270;23397;-52
2024/02/13 09:06:16;;;;;;;;;;;;;;;10.62;100.00;99421.13;108310;1276;23804;-54
2024/02/13 09:09:04;;;;;;;;;;;;;;;10.65;100.00;99425.77;108290;1270;22507;-58
2024/02/13 09:12:14;;;;;;;;;;;;;;;10.69;100.00;99422.08;108896;1270;22550;-54
2024/02/13 09:24:04;;;;;;;;;;;;;;;10.82;100.00;99430.41;109916;1272;22430;-56
2024/02/13 09:27:07;;;;;;;;;;;;;;;10.85;100.00;99425.86;109764;1275;22590;-56
2024/02/13 09:30:06;;;;;;;;;;;;;;;10.89;100.00;99424.02;109351;1271;22537;-53
2024/02/13 09:32:42;;;;;;;;;;;;;;;10.95;100.00;99417.49;109801;1275;23025;-53
2024/02/13 09:35:10;;;;;;;;;;;;;;;11.02;100.00;99417.58;109786;1254;22639;-57
2024/02/13 09:37:40;;;;;;;;;;;;;;;11.09;100.00;99415.00;109507;1274;23937;-57
2024/02/13 09:40:15;;;;;;;;;;;;;;;11.17;100.00;99409.98;109344;1270;23308;-54
2024/02/13 09:42:49;;;;;;;;;;;;;;;11.23;100.00;99403.43;107753;1278;22461;-55
2024/02/13 09:45:22;;;;;;;;;;;;;;;11.27;100.00;99406.34;108367;1273;22519;-53
2024/02/13 09:47:52;;;;;;;;;;;;;;;11.32;100.00;99404.84;109021;1274;22548;-52
2024/02/13 09:50:20;;;;;;;;;;;;;;;11.38;100.00;99404.92;109268;1276;23297;-47
2024/02/13 09:52:50;;;;;;;;;;;;;;;11.40;100.00;99404.35;109441;1276;23320;-58
2024/02/13 09:55:20;;;;;;;;;;;;;;;11.40;100.00;99402.09;108749;1273;22523;-51
2024/02/13 09:58:11;;;;;;;;;;;;;;;11.40;100.00;99402.25;108411;1273;23048;-54
2024/02/13 10:01:05;;;;;;;;;;;;;;;11.40;100.00;99401.38;108828;1276;25210;-59
2024/02/13 10:04:07;;;;;;;;;;;;;;;11.38;100.00;99399.52;109720;1274;22453;-51
2024/02/13 10:06:35;;;;;;;;;;;;;;;11.39;100.00;99397.75;109074;1269;22523;-53
2024/02/13 10:09:05;;;;;;;;;;;;;;;11.39;100.00;99396.86;109042;1273;22992;-60
2024/02/13 10:11:41;;;;;;;;;;;;;;;11.41;100.00;99397.70;109542;1274;22990;-58
2024/02/13 10:14:23;;;;;;;;;;;;;;;11.42;100.00;99398.56;109448;1275;22566;-50
2024/02/13 10:16:51;;;;;;;;;;;;;;;11.44;100.00;99400.63;109578;1278;22437;-49
2024/02/13 10:19:22;;;;;;;;;;;;;;;11.47;100.00;99399.17;109496;1278;22605;-54
2024/02/13 10:21:51;;;;;;;;;;;;;;;11.49;100.00;99403.34;109535;1272;23355;-58
2024/02/13 10:24:20;;;;;;;;;;;;;;;11.50;100.00;99404.54;109584;1273;23120;-58
2024/02/13 10:26:53;;;;;;;;;;;;;;;11.52;100.00;99403.45;109337;1274;23611;-50
2024/02/13 10:29:21;;;;;;;;;;;;;;;11.51;100.00;99403.99;109296;1277;23172;-57
2024/02/13 10:31:49;;;;;;;;;;;;;;;11.52;100.00;99398.91;109373;1278;22485;-49
2024/02/13 10:34:18;;;;;;;;;;;;;;;11.54;100.00;99394.69;109700;1272;22675;-53
2024/02/13 10:36:45;;;;;;;;;;;;;;;11.57;100.00;99395.69;109740;1275;22903;-54
2024/02/13 10:39:14;;;;;;;;;;;;;;;11.57;100.00;99393.75;109640;1273;22508;-58
2024/02/13 10:41:45;;;;;;;;;;;;;;;11.58;100.00;99388.84;109357;1278;23303;-53
2024/02/13 10:44:13;;;;;;;;;;;;;;;11.58;100.00;99387.27;109822;1278;22449;-55
2024/02/13 10:46:45;;;;;;;;;;;;;;;11.60;100.00;99384.61;109677;1273;23949;-59
2024/02/13 10:49:14;;;;;;;;;;;;;;;11.64;100.00;99382.10;109658;1276;22525;-60
2024/02/13 10:51:41;;;;;;;;;;;;;;;11.67;100.00;99381.70;109528;1276;22494;-54
2024/02/13 10:54:09;;;;;;;;;;;;;;;11.72;100.00;99378.28;109828;1273;22418;-53
2024/02/13 10:56:37;;;;;;;;;;;;;;;11.77;100.00;99376.27;109786;1278;22499;-52
2024/02/13 10:59:05;;;;;;;;;;;;;;;11.78;100.00;99373.81;109772;1278;23148;-57
2024/02/13 11:01:37;;;;;;;;;;;;;;;11.78;100.00;99377.65;109897;1279;23248;-56
2024/02/13 11:04:05;;;;;;;;;;;;;;;11.78;100.00;99376.95;109756;1278;23213;-57
2024/02/13 11:06:33;;;;;;;;;;;;;;;11.79;100.00;99377.10;109622;1274;26456;-58
2024/02/13 11:09:01;;;;;;;;;;;;;;;11.80;100.00;99381.09;108989;1278;22609;-53
2024/02/13 11:11:29;;;;;;;;;;;;;;;11.80;100.00;99372.89;109815;1273;23315;-53
2024/02/13 11:13:57;;;;;;;;;;;;;;;11.81;100.00;99374.96;109498;1273;22990;-60
2024/02/13 11:16:26;;;;;;;;;;;;;;;11.81;100.00;99373.40;109134;1278;22499;-58
2024/02/13 11:18:53;;;;;;;;;;;;;;;11.80;100.00;99370.27;109760;1278;23335;-57
2024/02/13 11:21:21;;;;;;;;;;;;;;;11.77;100.00;99371.55;109608;1277;22765;-50
2024/02/13 11:24:12;;;;;;;;;;;;;;;11.79;100.00;99370.64;109592;1278;22992;-53
2024/02/13 11:26:39;;;;;;;;;;;;;;;11.81;100.00;99371.30;109752;1272;23527;-52
2024/02/13 11:29:11;;;;;;;;;;;;;;;11.82;100.00;99366.58;109623;1273;22608;-62
2024/02/13 11:31:39;;;;;;;;;;;;;;;11.86;100.00;99365.83;109765;1278;22473;-60
2024/02/13 11:34:08;;;;;;;;;;;;;;;11.86;100.00;99366.15;109710;1278;22522;-53
2024/02/13 11:36:37;;;;;;;;;;;;;;;11.87;100.00;99361.77;109694;1278;22482;-52
2024/02/13 11:39:07;;;;;;;;;;;;;;;11.86;100.00;99359.17;109696;1278;23049;-55
2024/02/13 11:41:35;;;;;;;;;;;;;;;11.90;100.00;99358.05;109781;1278;22480;-56
2024/02/13 11:44:07;;;;;;;;;;;;;;;11.94;100.00;99359.18;109819;1278;23157;-49
2024/02/13 11:46:39;;;;;;;;;;;;;;;11.94;100.00;99357.44;109758;1273;23248;-57
2024/02/13 11:49:09;;;;;;;;;;;;;;;11.96;100.00;99356.52;109861;1280;22443;-49
2024/02/13 11:51:39;;;;;;;;;;;;;;;12.00;100.00;99353.46;109949;1278;23293;-50
2024/02/13 11:54:07;;;;;;;;;;;;;;;12.04;100.00;99353.21;109899;1277;22515;-50
2024/02/13 11:56:35;;;;;;;;;;;;;;;12.05;100.00;99353.35;109891;1275;22450;-60
2024/02/13 11:59:06;;;;;;;;;;;;;;;12.04;100.00;99351.27;109917;1266;22425;-58
2024/02/13 12:01:37;;;;;;;;;;;;;;;12.02;100.00;99347.84;109859;1276;22442;-57
2024/02/13 12:04:11;;;;;;;;;;;;;;;12.03;100.00;99350.27;109772;1278;23185;-59
2024/02/13 12:06:40;;;;;;;;;;;;;;;12.04;100.00;99354.27;109779;1278;22460;-61
2024/02/13 12:09:08;;;;;;;;;;;;;;;12.05;100.00;99350.23;109811;1278;24210;-60
2024/02/13 12:11:36;;;;;;;;;;;;;;;12.06;100.00;99354.22;109711;1273;23218;-60
2024/02/13 12:14:05;;;;;;;;;;;;;;;12.09;100.00;99359.74;109830;1278;22509;-59
2024/02/13 12:16:35;;;;;;;;;;;;;;;12.08;100.00;99362.73;109348;1278;23500;-58
2024/02/13 12:19:03;;;;;;;;;;;;;;;12.09;100.00;99362.71;109794;1280;22495;-59
2024/02/13 12:21:32;;;;;;;;;;;;;;;12.07;100.00;99365.92;109762;1278;22403;-59
2024/02/13 12:24:01;;;;;;;;;;;;;;;12.04;100.00;99366.30;109833;1278;23098;-58
2024/02/13 12:26:29;;;;;;;;;;;;;;;12.03;100.00;99363.55;109710;1273;22486;-48
2024/02/13 12:28:58;;;;;;;;;;;;;;;12.04;100.00;99367.38;109125;1278;22558;-48
2024/02/13 12:31:30;;;;;;;;;;;;;;;12.06;100.00;99367.33;109400;1273;23173;-48
2024/02/13 12:34:04;;;;;;;;;;;;;;;12.08;100.00;99369.55;109711;1275;22471;-48
2024/02/13 12:36:34;;;;;;;;;;;;;;;12.11;100.00;99369.14;109682;1278;22515;-48
2024/02/13 12:39:08;;;;;;;;;;;;;;;12.10;100.00;99372.83;109792;1272;22969;-48
2024/02/13 12:41:36;;;;;;;;;;;;;;;12.10;100.00;99378.42;109794;1278;22453;-58
2024/02/13 12:44:04;;;;;;;;;;;;;;;12.11;100.00;99379.63;109896;1274;22450;-57
2024/02/13 12:46:36;;;;;;;;;;;;;;;12.10;100.00;99377.21;109603;1279;22494;-48
2024/02/13 12:49:10;;;;;;;;;;;;;;;12.09;100.00;99378.81;109704;1278;22500;-48
2024/02/13 12:51:43;;;;;;;;;;;;;;;12.08;100.00;99376.22;109127;1278;24202;-49
2024/02/13 12:54:11;;;;;;;;;;;;;;;12.05;100.00;99380.27;109030;1278;22503;-49
2024/02/13 12:56:42;;;;;;;;;;;;;;;12.00;100.00;99377.93;109797;1278;23612;-49
2024/02/13 12:59:12;;;;;;;;;;;;;;;11.97;100.00;99376.77;109099;1276;22516;-50
2024/02/13 13:01:44;;;;;;;;;;;;;;;11.96;100.00;99379.60;109520;1278;23178;-52
2024/02/13 13:04:13;;;;;;;;;;;;;;;11.97;100.00;99376.94;109655;1278;22548;-49
2024/02/13 13:06:44;;;;;;;;;;;;;;;12.00;100.00;99373.39;109423;1273;23244;-46
2024/02/13 13:09:13;;;;;;;;;;;;;;;12.05;100.00;99374.69;109864;1278;22388;-51
2024/02/13 13:11:53;;;;;;;;;;;;;;;12.08;100.00;99375.52;109897;1278;23193;-58
2024/02/13 13:14:23;;;;;;;;;;;;;;;12.10;100.00;99375.79;109810;1278;22534;-50
2024/02/13 13:16:51;;;;;;;;;;;;;;;12.11;100.00;99373.33;109805;1280;22488;-58
2024/02/13 13:19:22;;;;;;;;;;;;;;;12.13;100.00;99373.30;109698;1278;22441;-59
2024/02/13 13:21:53;;;;;;;;;;;;;;;12.13;100.00;99374.18;109666;1276;22544;-47
2024/02/13 13:24:22;;;;;;;;;;;;;;;12.13;100.00;99375.94;109813;1273;23003;-47
2024/02/13 13:26:50;;;;;;;;;;;;;;;12.12;100.00;99374.73;109857;1280;22438;-49
2024/02/13 13:29:18;;;;;;;;;;;;;;;12.12;100.00;99374.20;109906;1280;22410;-59
2024/02/13 13:31:48;;;;;;;;;;;;;;;12.11;100.00;99378.23;109739;1277;23549;-60
2024/02/13 13:34:20;;;;;;;;;;;;;;;12.10;100.00;99376.50;109802;1278;22412;-58
2024/02/13 13:36:49;;;;;;;;;;;;;;;12.11;100.00;99378.41;109934;1278;22466;-57
2024/02/13 13:39:17;;;;;;;;;;;;;;;12.11;100.00;99377.00;109687;1278;22509;-49
2024/02/13 13:41:45;;;;;;;;;;;;;;;12.11;100.00;99375.08;109288;1278;22592;-50
2024/02/13 13:44:13;;;;;;;;;;;;;;;12.09;100.00;99376.01;109367;1278;22508;-48
2024/02/13 13:46:41;;;;;;;;;;;;;;;12.02;100.00;99373.69;109599;1275;22486;-58
2024/02/13 13:49:10;;;;;;;;;;;;;;;11.94;100.00;99373.68;109232;1278;24147;-59
2024/02/13 13:51:40;;;;;;;;;;;;;;;11.88;100.00;99377.65;109961;1278;22408;-48
2024/02/13 13:54:08;;;;;;;;;;;;;;;11.83;100.00;99376.17;109184;1278;23617;-58
2024/02/13 13:56:35;;;;;;;;;;;;;;;11.78;100.00;99376.08;109549;1278;22541;-58
2024/02/13 13:59:04;;;;;;;;;;;;;;;11.73;100.00;99376.69;109517;1278;22501;-49
2024/02/13 14:01:31;;;;;;;;;;;;;;;11.72;100.00;99375.48;109825;1273;22881;-59
2024/02/13 14:03:59;;;;;;;;;;;;;;;11.73;100.00;99379.67;109388;1278;24024;-59
2024/02/13 14:06:27;;;;;;;;;;;;;;;11.74;100.00;99377.73;109839;1273;23575;-60
2024/02/13 14:08:55;;;;;;;;;;;;;;;11.75;100.00;99374.73;109699;1278;22528;-52
2024/02/13 14:11:22;;;;;;;;;;;;;;;11.75;100.00;99376.30;109609;1280;22491;-48
2024/02/13 14:13:52;;;;;;;;;;;;;;;11.75;100.00;99372.98;109935;1278;22509;-49
2024/02/13 14:16:20;;;;;;;;;;;;;;;11.73;100.00;99372.84;109727;1278;22550;-49
2024/02/13 14:18:47;;;;;;;;;;;;;;;11.70;100.00;99379.00;109948;1279;22435;-48
2024/02/13 14:21:16;;;;;;;;;;;;;;;11.69;100.00;99376.95;109705;1278;23374;-50
2024/02/13 14:23:43;;;;;;;;;;;;;;;11.68;100.00;99386.91;109900;1278;22460;-60
2024/02/13 14:26:11;;;;;;;;;;;;;;;11.67;100.00;99386.06;108740;1279;22560;-53
2024/02/13 14:28:39;;;;;;;;;;;;;;;11.63;100.00;99388.40;108093;1279;25265;-59
2024/02/13 14:31:06;;;;;;;;;;;;;;;11.60;100.00;99390.91;108930;1278;24032;-51
2024/02/13 14:33:34;;;;;;;;;;;;;;;11.59;100.00;99392.66;109734;1278;23224;-51
2024/02/13 14:36:03;;;;;;;;;;;;;;;11.55;100.00;99390.48;108954;1278;22521;-50
2024/02/13 14:38:31;;;;;;;;;;;;;;;11.49;100.00;99384.83;109077;1279;22541;-61
2024/02/13 14:40:59;;;;;;;;;;;;;;;11.40;100.00;99383.41;108081;1279;22533;-49
2024/02/13 14:43:27;;;;;;;;;;;;;;;11.32;100.00;99378.30;109602;1278;22494;-49
2024/02/13 14:45:58;;;;;;;;;;;;;;;11.23;100.00;99369.75;108164;1278;22588;-61
2024/02/13 14:48:27;;;;;;;;;;;;;;;11.12;100.00;99369.06;108768;1279;22582;-59
2024/02/13 14:50:54;;;;;;;;;;;;;;;11.01;100.00;99373.09;108842;1278;22584;-60
2024/02/13 14:53:23;;;;;;;;;;;;;;;10.96;100.00;99373.52;108410;1278;23616;-50
2024/02/13 14:55:51;;;;;;;;;;;;;;;10.93;100.00;99376.34;109718;1278;22519;-51
2024/02/13 14:58:24;;;;;;;;;;;;;;;10.93;100.00;99383.51;108096;1277;22523;-62
2024/02/13 15:01:08;;;;;;;;;;;;;;;10.92;100.00;99391.38;109944;1274;22435;-48
2024/02/13 15:03:37;;;;;;;;;;;;;;;10.89;100.00;99403.27;109968;1278;22418;-61
2024/02/13 15:06:04;;;;;;;;;;;;;;;10.85;100.00;99397.59;110004;1278;23185;-62
2024/02/13 15:08:34;;;;;;;;;;;;;;;10.83;100.00;99391.50;109952;1278;22435;-60
2024/02/13 15:11:03;;;;;;;;;;;;;;;10.80;100.00;99380.23;109529;1278;23556;-57
2024/02/13 15:13:33;;;;;;;;;;;;;;;10.75;100.00;99379.42;108017;1278;22527;-60
